sensor_id;sensor_type;location;lat;lon;timestamp;P1;durP1;ratioP1;P2;durP2;ratioP2
14019;SDS011;7085;51.428;6.796;2023-02-11T00:01:05;26.30;;;16.50;;
14019;SDS011;7085;51.428;6.796;2023-02-11T00:03:33;30.08;;;16.23;;
14019;SDS011;7085;51.428;6.796;2023-02-11T00:06:01;23.58;;;15.52;;
14019;SDS011;7085;51.428;6.796;2023-02-11T00:08:28;23.83;;;15.20;;
14019;SDS011;7085;51.428;6.796;2023-02-11T00:10:56;25.95;;;15.63;;
14019;SDS011;7085;51.428;6.796;2023-02-11T00:13:24;23.50;;;15.23;;
14019;SDS011;7085;51.428;6.796;2023-02-11T00:15:51;24.27;;;15.90;;
14019;SDS011;7085;51.428;6.796;2023-02-11T00:18:19;24.92;;;15.73;;
14019;SDS011;7085;51.428;6.796;2023-02-11T00:20:47;24.55;;;14.90;;
14019;SDS011;7085;51.428;6.796;2023-02-11T00:23:14;25.33;;;15.23;;
14019;SDS011;7085;51.428;6.796;2023-02-11T00:25:42;27.27;;;16.48;;
14019;SDS011;7085;51.428;6.796;2023-02-11T00:28:10;22.80;;;15.75;;
14019;SDS011;7085;51.428;6.796;2023-02-11T00:30:37;22.42;;;14.82;;
14019;SDS011;7085;51.428;6.796;2023-02-11T00:33:04;22.48;;;15.20;;
14019;SDS011;7085;51.428;6.796;2023-02-11T00:35:31;23.52;;;15.45;;
14019;SDS011;7085;51.428;6.796;2023-02-11T00:38:00;25.02;;;14.88;;
14019;SDS011;7085;51.428;6.796;2023-02-11T00:40:27;23.95;;;14.93;;
14019;SDS011;7085;51.428;6.796;2023-02-11T00:42:54;31.38;;;16.73;;
14019;SDS011;7085;51.428;6.796;2023-02-11T00:45:21;25.65;;;15.48;;
14019;SDS011;7085;51.428;6.796;2023-02-11T00:47:48;17.98;;;13.32;;
14019;SDS011;7085;51.428;6.796;2023-02-11T00:50:15;19.45;;;14.02;;
14019;SDS011;7085;51.428;6.796;2023-02-11T00:52:42;23.45;;;14.60;;
14019;SDS011;7085;51.428;6.796;2023-02-11T00:55:11;26.52;;;17.35;;
14019;SDS011;7085;51.428;6.796;2023-02-11T00:57:38;20.98;;;12.75;;
14019;SDS011;7085;51.428;6.796;2023-02-11T01:00:06;20.98;;;13.50;;
14019;SDS011;7085;51.428;6.796;2023-02-11T01:02:33;26.05;;;14.07;;
14019;SDS011;7085;51.428;6.796;2023-02-11T01:05:00;21.15;;;12.95;;
14019;SDS011;7085;51.428;6.796;2023-02-11T01:07:27;20.90;;;13.57;;
14019;SDS011;7085;51.428;6.796;2023-02-11T01:09:54;23.65;;;14.15;;
14019;SDS011;7085;51.428;6.796;2023-02-11T01:12:23;22.92;;;12.85;;
14019;SDS011;7085;51.428;6.796;2023-02-11T01:14:50;18.95;;;12.98;;
14019;SDS011;7085;51.428;6.796;2023-02-11T01:17:18;22.58;;;13.63;;
14019;SDS011;7085;51.428;6.796;2023-02-11T01:19:45;23.65;;;13.93;;
14019;SDS011;7085;51.428;6.796;2023-02-11T01:22:12;19.88;;;13.93;;
14019;SDS011;7085;51.428;6.796;2023-02-11T01:24:39;20.63;;;13.40;;
14019;SDS011;7085;51.428;6.796;2023-02-11T01:27:06;25.40;;;13.68;;
14019;SDS011;7085;51.428;6.796;2023-02-11T01:29:34;23.10;;;14.02;;
14019;SDS011;7085;51.428;6.796;2023-02-11T01:32:01;19.35;;;13.52;;
14019;SDS011;7085;51.428;6.796;2023-02-11T01:34:29;20.85;;;13.32;;
14019;SDS011;7085;51.428;6.796;2023-02-11T01:36:56;18.50;;;13.15;;
14019;SDS011;7085;51.428;6.796;2023-02-11T01:39:23;17.23;;;12.80;;
14019;SDS011;7085;51.428;6.796;2023-02-11T01:41:51;17.55;;;12.27;;
14019;SDS011;7085;51.428;6.796;2023-02-11T01:44:22;22.42;;;13.50;;
14019;SDS011;7085;51.428;6.796;2023-02-11T01:46:50;21.48;;;12.98;;
14019;SDS011;7085;51.428;6.796;2023-02-11T01:49:18;19.55;;;11.73;;
14019;SDS011;7085;51.428;6.796;2023-02-11T01:51:48;20.52;;;13.35;;
14019;SDS011;7085;51.428;6.796;2023-02-11T01:54:17;21.08;;;12.48;;
14019;SDS011;7085;51.428;6.796;2023-02-11T01:57:03;21.48;;;13.20;;
14019;SDS011;7085;51.428;6.796;2023-02-11T02:00:02;20.17;;;13.23;;
14019;SDS011;7085;51.428;6.796;2023-02-11T02:02:33;18.02;;;12.13;;
14019;SDS011;7085;51.428;6.796;2023-02-11T02:05:04;19.27;;;12.77;;
14019;SDS011;7085;51.428;6.796;2023-02-11T02:07:35;21.05;;;12.77;;
14019;SDS011;7085;51.428;6.796;2023-02-11T02:10:04;20.25;;;12.70;;
14019;SDS011;7085;51.428;6.796;2023-02-11T02:12:32;23.85;;;13.23;;
14019;SDS011;7085;51.428;6.796;2023-02-11T02:15:22;23.23;;;13.27;;
14019;SDS011;7085;51.428;6.796;2023-02-11T02:17:54;28.27;;;13.75;;
14019;SDS011;7085;51.428;6.796;2023-02-11T02:20:27;21.33;;;13.27;;
14019;SDS011;7085;51.428;6.796;2023-02-11T02:23:11;22.10;;;12.25;;
14019;SDS011;7085;51.428;6.796;2023-02-11T02:25:48;21.80;;;12.98;;
14019;SDS011;7085;51.428;6.796;2023-02-11T02:28:27;19.85;;;12.02;;
14019;SDS011;7085;51.428;6.796;2023-02-11T02:31:06;24.15;;;13.75;;
14019;SDS011;7085;51.428;6.796;2023-02-11T02:33:45;22.10;;;13.10;;
14019;SDS011;7085;51.428;6.796;2023-02-11T02:36:17;19.35;;;12.30;;
14019;SDS011;7085;51.428;6.796;2023-02-11T02:38:50;24.60;;;13.77;;
14019;SDS011;7085;51.428;6.796;2023-02-11T02:41:19;18.75;;;11.48;;
14019;SDS011;7085;51.428;6.796;2023-02-11T02:43:48;22.23;;;13.98;;
14019;SDS011;7085;51.428;6.796;2023-02-11T02:46:16;21.00;;;12.38;;
14019;SDS011;7085;51.428;6.796;2023-02-11T02:48:43;18.10;;;12.23;;
14019;SDS011;7085;51.428;6.796;2023-02-11T02:51:17;21.40;;;11.77;;
14019;SDS011;7085;51.428;6.796;2023-02-11T02:53:49;18.90;;;11.48;;
14019;SDS011;7085;51.428;6.796;2023-02-11T02:56:21;16.08;;;10.40;;
14019;SDS011;7085;51.428;6.796;2023-02-11T02:59:04;18.10;;;12.57;;
14019;SDS011;7085;51.428;6.796;2023-02-11T03:01:38;20.40;;;13.23;;
14019;SDS011;7085;51.428;6.796;2023-02-11T03:04:09;19.52;;;12.00;;
14019;SDS011;7085;51.428;6.796;2023-02-11T03:06:40;18.77;;;11.57;;
14019;SDS011;7085;51.428;6.796;2023-02-11T03:09:12;18.58;;;12.15;;
14019;SDS011;7085;51.428;6.796;2023-02-11T03:11:40;19.83;;;12.15;;
14019;SDS011;7085;51.428;6.796;2023-02-11T03:14:08;18.00;;;10.68;;
14019;SDS011;7085;51.428;6.796;2023-02-11T03:16:36;18.33;;;11.57;;
14019;SDS011;7085;51.428;6.796;2023-02-11T03:19:05;20.65;;;11.90;;
14019;SDS011;7085;51.428;6.796;2023-02-11T03:21:34;18.80;;;11.32;;
14019;SDS011;7085;51.428;6.796;2023-02-11T03:24:05;23.15;;;10.65;;
14019;SDS011;7085;51.428;6.796;2023-02-11T03:26:35;20.08;;;11.40;;
14019;SDS011;7085;51.428;6.796;2023-02-11T03:29:05;21.42;;;13.50;;
14019;SDS011;7085;51.428;6.796;2023-02-11T03:31:35;16.70;;;10.90;;
14019;SDS011;7085;51.428;6.796;2023-02-11T03:34:06;15.10;;;10.20;;
14019;SDS011;7085;51.428;6.796;2023-02-11T03:36:38;19.83;;;11.10;;
14019;SDS011;7085;51.428;6.796;2023-02-11T03:39:11;17.85;;;12.00;;
14019;SDS011;7085;51.428;6.796;2023-02-11T03:41:40;23.63;;;12.55;;
14019;SDS011;7085;51.428;6.796;2023-02-11T03:44:08;22.08;;;12.02;;
14019;SDS011;7085;51.428;6.796;2023-02-11T03:46:36;17.80;;;11.80;;
14019;SDS011;7085;51.428;6.796;2023-02-11T03:49:06;16.00;;;11.23;;
14019;SDS011;7085;51.428;6.796;2023-02-11T03:51:35;20.70;;;11.10;;
14019;SDS011;7085;51.428;6.796;2023-02-11T03:54:03;22.02;;;12.48;;
14019;SDS011;7085;51.428;6.796;2023-02-11T03:56:34;18.85;;;11.00;;
14019;SDS011;7085;51.428;6.796;2023-02-11T03:59:02;17.02;;;11.70;;
14019;SDS011;7085;51.428;6.796;2023-02-11T04:01:29;15.02;;;11.18;;
14019;SDS011;7085;51.428;6.796;2023-02-11T04:03:56;23.38;;;12.30;;
14019;SDS011;7085;51.428;6.796;2023-02-11T04:06:24;19.08;;;12.32;;
14019;SDS011;7085;51.428;6.796;2023-02-11T04:08:51;23.23;;;12.77;;
14019;SDS011;7085;51.428;6.796;2023-02-11T04:11:18;22.60;;;11.82;;
14019;SDS011;7085;51.428;6.796;2023-02-11T04:13:46;21.20;;;12.32;;
14019;SDS011;7085;51.428;6.796;2023-02-11T04:16:13;19.00;;;12.35;;
14019;SDS011;7085;51.428;6.796;2023-02-11T04:18:40;19.10;;;13.00;;
14019;SDS011;7085;51.428;6.796;2023-02-11T04:21:07;16.58;;;11.30;;
14019;SDS011;7085;51.428;6.796;2023-02-11T04:23:34;20.92;;;11.52;;
14019;SDS011;7085;51.428;6.796;2023-02-11T04:26:01;20.27;;;12.13;;
14019;SDS011;7085;51.428;6.796;2023-02-11T04:28:29;20.17;;;12.45;;
14019;SDS011;7085;51.428;6.796;2023-02-11T04:30:57;22.38;;;12.65;;
14019;SDS011;7085;51.428;6.796;2023-02-11T04:33:24;22.40;;;12.82;;
14019;SDS011;7085;51.428;6.796;2023-02-11T04:35:51;21.90;;;13.23;;
14019;SDS011;7085;51.428;6.796;2023-02-11T04:38:18;24.58;;;13.60;;
14019;SDS011;7085;51.428;6.796;2023-02-11T04:40:48;19.55;;;12.50;;
14019;SDS011;7085;51.428;6.796;2023-02-11T04:43:15;18.88;;;13.30;;
14019;SDS011;7085;51.428;6.796;2023-02-11T04:45:42;23.35;;;13.48;;
14019;SDS011;7085;51.428;6.796;2023-02-11T04:48:10;23.77;;;12.93;;
14019;SDS011;7085;51.428;6.796;2023-02-11T04:50:37;22.52;;;12.77;;
14019;SDS011;7085;51.428;6.796;2023-02-11T04:53:04;17.88;;;13.00;;
14019;SDS011;7085;51.428;6.796;2023-02-11T04:55:31;18.38;;;12.75;;
14019;SDS011;7085;51.428;6.796;2023-02-11T04:57:58;22.45;;;13.48;;
14019;SDS011;7085;51.428;6.796;2023-02-11T05:00:25;27.45;;;13.18;;
14019;SDS011;7085;51.428;6.796;2023-02-11T05:02:52;20.73;;;12.23;;
14019;SDS011;7085;51.428;6.796;2023-02-11T05:05:21;21.48;;;12.93;;
14019;SDS011;7085;51.428;6.796;2023-02-11T05:07:48;24.77;;;13.18;;
14019;SDS011;7085;51.428;6.796;2023-02-11T05:10:15;25.40;;;14.18;;
14019;SDS011;7085;51.428;6.796;2023-02-11T05:12:42;24.80;;;14.50;;
14019;SDS011;7085;51.428;6.796;2023-02-11T05:15:10;25.97;;;15.13;;
14019;SDS011;7085;51.428;6.796;2023-02-11T05:17:37;23.38;;;14.68;;
14019;SDS011;7085;51.428;6.796;2023-02-11T05:20:04;24.05;;;13.93;;
14019;SDS011;7085;51.428;6.796;2023-02-11T05:22:33;22.23;;;14.60;;
14019;SDS011;7085;51.428;6.796;2023-02-11T05:25:00;23.08;;;14.77;;
14019;SDS011;7085;51.428;6.796;2023-02-11T05:27:27;25.58;;;16.13;;
14019;SDS011;7085;51.428;6.796;2023-02-11T05:29:54;28.90;;;15.38;;
14019;SDS011;7085;51.428;6.796;2023-02-11T05:32:21;24.67;;;15.30;;
14019;SDS011;7085;51.428;6.796;2023-02-11T05:34:48;23.95;;;15.20;;
14019;SDS011;7085;51.428;6.796;2023-02-11T05:37:15;23.30;;;15.18;;
14019;SDS011;7085;51.428;6.796;2023-02-11T05:39:44;25.70;;;15.82;;
14019;SDS011;7085;51.428;6.796;2023-02-11T05:42:11;31.92;;;16.08;;
14019;SDS011;7085;51.428;6.796;2023-02-11T05:44:38;31.17;;;15.98;;
14019;SDS011;7085;51.428;6.796;2023-02-11T05:47:06;23.13;;;17.13;;
14019;SDS011;7085;51.428;6.796;2023-02-11T05:49:33;26.08;;;16.17;;
14019;SDS011;7085;51.428;6.796;2023-02-11T05:52:00;22.67;;;15.20;;
14019;SDS011;7085;51.428;6.796;2023-02-11T05:54:27;27.60;;;16.90;;
14019;SDS011;7085;51.428;6.796;2023-02-11T05:56:56;27.05;;;15.65;;
14019;SDS011;7085;51.428;6.796;2023-02-11T05:59:23;28.65;;;15.27;;
14019;SDS011;7085;51.428;6.796;2023-02-11T06:01:50;28.73;;;16.48;;
14019;SDS011;7085;51.428;6.796;2023-02-11T06:04:17;25.63;;;15.82;;
14019;SDS011;7085;51.428;6.796;2023-02-11T06:06:45;29.98;;;15.98;;
14019;SDS011;7085;51.428;6.796;2023-02-11T06:09:12;28.05;;;16.13;;
14019;SDS011;7085;51.428;6.796;2023-02-11T06:11:39;22.27;;;15.10;;
14019;SDS011;7085;51.428;6.796;2023-02-11T06:14:08;24.95;;;16.02;;
14019;SDS011;7085;51.428;6.796;2023-02-11T06:16:35;31.48;;;16.63;;
14019;SDS011;7085;51.428;6.796;2023-02-11T06:19:02;34.92;;;15.48;;
14019;SDS011;7085;51.428;6.796;2023-02-11T06:21:29;30.85;;;16.95;;
14019;SDS011;7085;51.428;6.796;2023-02-11T06:23:56;30.83;;;15.45;;
14019;SDS011;7085;51.428;6.796;2023-02-11T06:26:23;27.02;;;14.65;;
14019;SDS011;7085;51.428;6.796;2023-02-11T06:28:50;25.35;;;15.35;;
14019;SDS011;7085;51.428;6.796;2023-02-11T06:31:19;23.52;;;13.88;;
14019;SDS011;7085;51.428;6.796;2023-02-11T06:33:46;25.92;;;15.13;;
14019;SDS011;7085;51.428;6.796;2023-02-11T06:36:14;25.95;;;14.93;;
14019;SDS011;7085;51.428;6.796;2023-02-11T06:38:42;25.80;;;15.88;;
14019;SDS011;7085;51.428;6.796;2023-02-11T06:41:09;27.50;;;14.75;;
14019;SDS011;7085;51.428;6.796;2023-02-11T06:43:37;29.25;;;14.23;;
14019;SDS011;7085;51.428;6.796;2023-02-11T06:46:04;29.48;;;15.30;;
14019;SDS011;7085;51.428;6.796;2023-02-11T06:48:33;33.80;;;15.20;;
14019;SDS011;7085;51.428;6.796;2023-02-11T06:51:00;25.33;;;15.65;;
14019;SDS011;7085;51.428;6.796;2023-02-11T06:53:28;38.50;;;15.93;;
14019;SDS011;7085;51.428;6.796;2023-02-11T06:55:56;29.95;;;16.02;;
14019;SDS011;7085;51.428;6.796;2023-02-11T06:58:23;23.95;;;15.00;;
14019;SDS011;7085;51.428;6.796;2023-02-11T07:00:50;31.75;;;16.13;;
14019;SDS011;7085;51.428;6.796;2023-02-11T07:03:17;31.40;;;14.82;;
14019;SDS011;7085;51.428;6.796;2023-02-11T07:05:46;28.35;;;14.35;;
14019;SDS011;7085;51.428;6.796;2023-02-11T07:08:13;33.93;;;15.13;;
14019;SDS011;7085;51.428;6.796;2023-02-11T07:10:40;24.38;;;14.63;;
14019;SDS011;7085;51.428;6.796;2023-02-11T07:13:07;31.77;;;14.48;;
14019;SDS011;7085;51.428;6.796;2023-02-11T07:15:35;30.17;;;15.10;;
14019;SDS011;7085;51.428;6.796;2023-02-11T07:18:02;32.53;;;16.02;;
14019;SDS011;7085;51.428;6.796;2023-02-11T07:20:29;28.25;;;15.00;;
14019;SDS011;7085;51.428;6.796;2023-02-11T07:22:58;25.02;;;14.40;;
14019;SDS011;7085;51.428;6.796;2023-02-11T07:25:25;30.17;;;14.63;;
14019;SDS011;7085;51.428;6.796;2023-02-11T07:27:52;29.55;;;13.57;;
14019;SDS011;7085;51.428;6.796;2023-02-11T07:30:19;29.40;;;14.35;;
14019;SDS011;7085;51.428;6.796;2023-02-11T07:32:46;41.67;;;16.27;;
14019;SDS011;7085;51.428;6.796;2023-02-11T07:35:13;23.83;;;13.35;;
14019;SDS011;7085;51.428;6.796;2023-02-11T07:37:40;29.08;;;13.98;;
14019;SDS011;7085;51.428;6.796;2023-02-11T07:40:09;33.22;;;15.55;;
14019;SDS011;7085;51.428;6.796;2023-02-11T07:42:36;29.63;;;13.77;;
14019;SDS011;7085;51.428;6.796;2023-02-11T07:45:05;26.77;;;14.50;;
14019;SDS011;7085;51.428;6.796;2023-02-11T07:47:32;25.58;;;13.93;;
14019;SDS011;7085;51.428;6.796;2023-02-11T07:50:00;31.67;;;14.43;;
14019;SDS011;7085;51.428;6.796;2023-02-11T07:52:28;31.98;;;15.55;;
14019;SDS011;7085;51.428;6.796;2023-02-11T07:54:55;28.20;;;14.20;;
14019;SDS011;7085;51.428;6.796;2023-02-11T07:57:23;31.20;;;14.02;;
14019;SDS011;7085;51.428;6.796;2023-02-11T07:59:50;29.00;;;14.55;;
14019;SDS011;7085;51.428;6.796;2023-02-11T08:02:18;33.40;;;15.40;;
14019;SDS011;7085;51.428;6.796;2023-02-11T08:04:45;33.38;;;16.15;;
14019;SDS011;7085;51.428;6.796;2023-02-11T08:07:13;28.80;;;14.35;;
14019;SDS011;7085;51.428;6.796;2023-02-11T08:09:40;32.50;;;14.32;;
14019;SDS011;7085;51.428;6.796;2023-02-11T08:12:07;35.67;;;15.77;;
14019;SDS011;7085;51.428;6.796;2023-02-11T08:14:36;28.45;;;14.93;;
14019;SDS011;7085;51.428;6.796;2023-02-11T08:17:03;34.47;;;18.88;;
14019;SDS011;7085;51.428;6.796;2023-02-11T08:19:30;39.22;;;19.15;;
14019;SDS011;7085;51.428;6.796;2023-02-11T08:21:57;36.10;;;18.00;;
14019;SDS011;7085;51.428;6.796;2023-02-11T08:24:25;38.80;;;17.08;;
14019;SDS011;7085;51.428;6.796;2023-02-11T08:26:52;33.78;;;17.45;;
14019;SDS011;7085;51.428;6.796;2023-02-11T08:29:19;33.10;;;17.35;;
14019;SDS011;7085;51.428;6.796;2023-02-11T08:31:47;29.55;;;16.45;;
14019;SDS011;7085;51.428;6.796;2023-02-11T08:34:15;37.00;;;16.85;;
14019;SDS011;7085;51.428;6.796;2023-02-11T08:36:44;36.47;;;17.92;;
14019;SDS011;7085;51.428;6.796;2023-02-11T08:39:13;35.78;;;17.08;;
14019;SDS011;7085;51.428;6.796;2023-02-11T08:41:40;36.38;;;17.70;;
14019;SDS011;7085;51.428;6.796;2023-02-11T08:44:07;35.05;;;17.25;;
14019;SDS011;7085;51.428;6.796;2023-02-11T08:46:34;38.70;;;17.83;;
14019;SDS011;7085;51.428;6.796;2023-02-11T08:49:03;32.63;;;17.90;;
14019;SDS011;7085;51.428;6.796;2023-02-11T08:51:30;36.42;;;17.02;;
14019;SDS011;7085;51.428;6.796;2023-02-11T08:53:57;29.25;;;16.23;;
14019;SDS011;7085;51.428;6.796;2023-02-11T08:56:25;32.13;;;15.82;;
14019;SDS011;7085;51.428;6.796;2023-02-11T08:58:52;33.72;;;17.08;;
14019;SDS011;7085;51.428;6.796;2023-02-11T09:01:20;28.67;;;17.48;;
14019;SDS011;7085;51.428;6.796;2023-02-11T09:03:47;33.72;;;18.67;;
14019;SDS011;7085;51.428;6.796;2023-02-11T09:06:16;32.40;;;18.67;;
14019;SDS011;7085;51.428;6.796;2023-02-11T09:08:44;30.13;;;17.92;;
14019;SDS011;7085;51.428;6.796;2023-02-11T09:11:13;33.58;;;17.13;;
14019;SDS011;7085;51.428;6.796;2023-02-11T09:13:40;34.88;;;17.48;;
14019;SDS011;7085;51.428;6.796;2023-02-11T09:16:08;31.00;;;16.58;;
14019;SDS011;7085;51.428;6.796;2023-02-11T09:18:41;38.88;;;17.77;;
14019;SDS011;7085;51.428;6.796;2023-02-11T09:21:10;42.90;;;18.25;;
14019;SDS011;7085;51.428;6.796;2023-02-11T09:23:38;33.15;;;17.25;;
14019;SDS011;7085;51.428;6.796;2023-02-11T09:26:08;37.70;;;18.65;;
14019;SDS011;7085;51.428;6.796;2023-02-11T09:28:35;33.30;;;18.42;;
14019;SDS011;7085;51.428;6.796;2023-02-11T09:31:03;39.63;;;18.42;;
14019;SDS011;7085;51.428;6.796;2023-02-11T09:33:31;34.05;;;17.65;;
14019;SDS011;7085;51.428;6.796;2023-02-11T09:35:59;35.20;;;17.58;;
14019;SDS011;7085;51.428;6.796;2023-02-11T09:38:26;39.72;;;18.00;;
14019;SDS011;7085;51.428;6.796;2023-02-11T09:40:55;37.88;;;19.42;;
14019;SDS011;7085;51.428;6.796;2023-02-11T09:43:23;32.17;;;18.48;;
14019;SDS011;7085;51.428;6.796;2023-02-11T09:45:52;32.50;;;17.52;;
14019;SDS011;7085;51.428;6.796;2023-02-11T09:48:20;32.17;;;17.75;;
14019;SDS011;7085;51.428;6.796;2023-02-11T09:50:49;38.17;;;18.02;;
14019;SDS011;7085;51.428;6.796;2023-02-11T09:53:18;30.20;;;17.38;;
14019;SDS011;7085;51.428;6.796;2023-02-11T09:55:47;30.38;;;17.80;;
14019;SDS011;7085;51.428;6.796;2023-02-11T09:58:19;31.95;;;17.48;;
14019;SDS011;7085;51.428;6.796;2023-02-11T10:00:50;41.00;;;20.75;;
14019;SDS011;7085;51.428;6.796;2023-02-11T10:03:20;32.53;;;17.45;;
14019;SDS011;7085;51.428;6.796;2023-02-11T10:05:55;34.95;;;16.85;;
14019;SDS011;7085;51.428;6.796;2023-02-11T10:08:27;32.97;;;17.77;;
14019;SDS011;7085;51.428;6.796;2023-02-11T10:10:57;30.45;;;17.38;;
14019;SDS011;7085;51.428;6.796;2023-02-11T10:13:34;35.33;;;17.88;;
14019;SDS011;7085;51.428;6.796;2023-02-11T10:16:08;34.28;;;18.70;;
14019;SDS011;7085;51.428;6.796;2023-02-11T10:18:41;31.30;;;17.60;;
14019;SDS011;7085;51.428;6.796;2023-02-11T10:21:13;35.33;;;17.25;;
14019;SDS011;7085;51.428;6.796;2023-02-11T10:23:44;40.75;;;18.35;;
14019;SDS011;7085;51.428;6.796;2023-02-11T10:26:13;33.92;;;17.15;;
14019;SDS011;7085;51.428;6.796;2023-02-11T10:28:43;37.58;;;17.80;;
14019;SDS011;7085;51.428;6.796;2023-02-11T10:31:12;44.75;;;18.60;;
14019;SDS011;7085;51.428;6.796;2023-02-11T10:33:42;36.10;;;19.75;;
14019;SDS011;7085;51.428;6.796;2023-02-11T10:36:09;33.85;;;17.50;;
14019;SDS011;7085;51.428;6.796;2023-02-11T10:38:37;35.45;;;17.83;;
14019;SDS011;7085;51.428;6.796;2023-02-11T10:41:04;37.00;;;18.40;;
14019;SDS011;7085;51.428;6.796;2023-02-11T10:43:31;37.00;;;19.95;;
14019;SDS011;7085;51.428;6.796;2023-02-11T10:46:01;37.92;;;19.10;;
14019;SDS011;7085;51.428;6.796;2023-02-11T10:48:36;37.38;;;18.85;;
14019;SDS011;7085;51.428;6.796;2023-02-11T10:51:11;39.90;;;19.88;;
14019;SDS011;7085;51.428;6.796;2023-02-11T10:53:39;31.90;;;17.95;;
14019;SDS011;7085;51.428;6.796;2023-02-11T10:56:06;34.00;;;18.92;;
14019;SDS011;7085;51.428;6.796;2023-02-11T10:58:39;35.33;;;18.20;;
14019;SDS011;7085;51.428;6.796;2023-02-11T11:01:08;35.90;;;19.05;;
14019;SDS011;7085;51.428;6.796;2023-02-11T11:03:36;30.25;;;18.90;;
14019;SDS011;7085;51.428;6.796;2023-02-11T11:06:05;39.55;;;19.67;;
14019;SDS011;7085;51.428;6.796;2023-02-11T11:08:37;36.90;;;19.05;;
14019;SDS011;7085;51.428;6.796;2023-02-11T11:11:06;32.97;;;18.50;;
14019;SDS011;7085;51.428;6.796;2023-02-11T11:13:34;32.80;;;18.15;;
14019;SDS011;7085;51.428;6.796;2023-02-11T11:16:19;36.05;;;19.88;;
14019;SDS011;7085;51.428;6.796;2023-02-11T11:18:47;37.50;;;18.45;;
14019;SDS011;7085;51.428;6.796;2023-02-11T11:21:15;38.10;;;19.15;;
14019;SDS011;7085;51.428;6.796;2023-02-11T11:23:48;35.60;;;20.70;;
14019;SDS011;7085;51.428;6.796;2023-02-11T11:26:16;35.42;;;19.90;;
14019;SDS011;7085;51.428;6.796;2023-02-11T11:28:49;41.35;;;20.77;;
14019;SDS011;7085;51.428;6.796;2023-02-11T11:31:19;38.10;;;19.38;;
14019;SDS011;7085;51.428;6.796;2023-02-11T11:33:47;37.83;;;19.02;;
14019;SDS011;7085;51.428;6.796;2023-02-11T11:36:15;34.80;;;20.33;;
14019;SDS011;7085;51.428;6.796;2023-02-11T11:38:44;42.90;;;21.65;;
14019;SDS011;7085;51.428;6.796;2023-02-11T11:41:15;39.70;;;20.73;;
14019;SDS011;7085;51.428;6.796;2023-02-11T11:44:00;45.88;;;21.80;;
14019;SDS011;7085;51.428;6.796;2023-02-11T11:46:31;41.08;;;20.50;;
14019;SDS011;7085;51.428;6.796;2023-02-11T11:51:44;41.80;;;20.25;;
14019;SDS011;7085;51.428;6.796;2023-02-11T11:54:14;42.60;;;22.27;;
14019;SDS011;7085;51.428;6.796;2023-02-11T11:56:45;38.60;;;19.92;;
14019;SDS011;7085;51.428;6.796;2023-02-11T11:59:13;54.75;;;25.60;;
14019;SDS011;7085;51.428;6.796;2023-02-11T12:01:45;48.65;;;25.73;;
14019;SDS011;7085;51.428;6.796;2023-02-11T12:04:35;33.67;;;19.83;;
14019;SDS011;7085;51.428;6.796;2023-02-11T12:07:09;36.50;;;19.80;;
14019;SDS011;7085;51.428;6.796;2023-02-11T12:09:43;35.28;;;19.88;;
14019;SDS011;7085;51.428;6.796;2023-02-11T12:12:16;38.83;;;19.88;;
14019;SDS011;7085;51.428;6.796;2023-02-11T12:14:49;36.08;;;19.10;;
14019;SDS011;7085;51.428;6.796;2023-02-11T12:17:24;34.97;;;19.85;;
14019;SDS011;7085;51.428;6.796;2023-02-11T12:19:59;31.45;;;19.10;;
14019;SDS011;7085;51.428;6.796;2023-02-11T12:22:34;36.53;;;20.58;;
14019;SDS011;7085;51.428;6.796;2023-02-11T12:25:06;39.88;;;21.45;;
14019;SDS011;7085;51.428;6.796;2023-02-11T12:27:39;42.03;;;20.70;;
14019;SDS011;7085;51.428;6.796;2023-02-11T12:30:13;42.60;;;21.88;;
14019;SDS011;7085;51.428;6.796;2023-02-11T12:32:46;36.15;;;20.80;;
14019;SDS011;7085;51.428;6.796;2023-02-11T12:35:16;40.53;;;21.50;;
14019;SDS011;7085;51.428;6.796;2023-02-11T12:37:48;39.30;;;21.88;;
14019;SDS011;7085;51.428;6.796;2023-02-11T12:40:24;33.67;;;19.70;;
14019;SDS011;7085;51.428;6.796;2023-02-11T12:42:59;32.40;;;20.50;;
14019;SDS011;7085;51.428;6.796;2023-02-11T12:45:46;34.67;;;19.77;;
14019;SDS011;7085;51.428;6.796;2023-02-11T12:48:20;38.17;;;20.65;;
14019;SDS011;7085;51.428;6.796;2023-02-11T12:50:53;40.60;;;22.63;;
14019;SDS011;7085;51.428;6.796;2023-02-11T12:53:30;36.97;;;20.05;;
14019;SDS011;7085;51.428;6.796;2023-02-11T12:55:59;44.67;;;21.45;;
14019;SDS011;7085;51.428;6.796;2023-02-11T12:58:29;39.55;;;21.83;;
14019;SDS011;7085;51.428;6.796;2023-02-11T13:00:59;41.40;;;22.35;;
14019;SDS011;7085;51.428;6.796;2023-02-11T13:03:34;38.50;;;21.77;;
14019;SDS011;7085;51.428;6.796;2023-02-11T13:06:02;39.25;;;21.77;;
14019;SDS011;7085;51.428;6.796;2023-02-11T13:08:32;45.95;;;22.88;;
14019;SDS011;7085;51.428;6.796;2023-02-11T13:11:00;38.28;;;20.20;;
14019;SDS011;7085;51.428;6.796;2023-02-11T13:13:29;38.38;;;21.75;;
14019;SDS011;7085;51.428;6.796;2023-02-11T13:15:58;36.65;;;21.35;;
14019;SDS011;7085;51.428;6.796;2023-02-11T13:18:33;41.17;;;20.08;;
14019;SDS011;7085;51.428;6.796;2023-02-11T13:21:07;41.75;;;21.75;;
14019;SDS011;7085;51.428;6.796;2023-02-11T13:23:42;37.58;;;20.95;;
14019;SDS011;7085;51.428;6.796;2023-02-11T13:26:11;38.22;;;21.30;;
14019;SDS011;7085;51.428;6.796;2023-02-11T13:28:44;39.63;;;21.13;;
14019;SDS011;7085;51.428;6.796;2023-02-11T13:31:12;37.92;;;22.80;;
14019;SDS011;7085;51.428;6.796;2023-02-11T13:33:42;36.88;;;23.13;;
14019;SDS011;7085;51.428;6.796;2023-02-11T13:36:17;38.70;;;21.92;;
14019;SDS011;7085;51.428;6.796;2023-02-11T13:38:51;36.60;;;22.10;;
14019;SDS011;7085;51.428;6.796;2023-02-11T13:41:20;39.83;;;21.13;;
14019;SDS011;7085;51.428;6.796;2023-02-11T13:43:56;38.92;;;21.90;;
14019;SDS011;7085;51.428;6.796;2023-02-11T13:46:23;38.42;;;20.27;;
14019;SDS011;7085;51.428;6.796;2023-02-11T13:48:52;36.35;;;21.92;;
14019;SDS011;7085;51.428;6.796;2023-02-11T13:51:31;38.08;;;20.95;;
14019;SDS011;7085;51.428;6.796;2023-02-11T13:53:59;43.40;;;22.10;;
14019;SDS011;7085;51.428;6.796;2023-02-11T13:56:27;43.03;;;22.95;;
14019;SDS011;7085;51.428;6.796;2023-02-11T13:58:55;40.42;;;22.77;;
14019;SDS011;7085;51.428;6.796;2023-02-11T14:04:32;38.38;;;23.05;;
14019;SDS011;7085;51.428;6.796;2023-02-11T14:07:23;43.17;;;23.02;;
14019;SDS011;7085;51.428;6.796;2023-02-11T14:13:04;47.13;;;24.27;;
14019;SDS011;7085;51.428;6.796;2023-02-11T14:15:37;41.15;;;23.65;;
14019;SDS011;7085;51.428;6.796;2023-02-11T14:20:47;38.58;;;22.58;;
14019;SDS011;7085;51.428;6.796;2023-02-11T14:23:20;36.67;;;22.65;;
14019;SDS011;7085;51.428;6.796;2023-02-11T14:25:51;42.97;;;22.77;;
14019;SDS011;7085;51.428;6.796;2023-02-11T14:28:21;40.22;;;22.20;;
14019;SDS011;7085;51.428;6.796;2023-02-11T14:30:52;39.83;;;21.92;;
14019;SDS011;7085;51.428;6.796;2023-02-11T14:33:26;36.38;;;22.60;;
14019;SDS011;7085;51.428;6.796;2023-02-11T14:36:02;42.47;;;23.00;;
14019;SDS011;7085;51.428;6.796;2023-02-11T14:38:34;36.25;;;22.73;;
14019;SDS011;7085;51.428;6.796;2023-02-11T14:41:05;34.58;;;21.75;;
14019;SDS011;7085;51.428;6.796;2023-02-11T14:43:34;37.72;;;22.73;;
14019;SDS011;7085;51.428;6.796;2023-02-11T14:46:02;30.98;;;20.42;;
14019;SDS011;7085;51.428;6.796;2023-02-11T14:48:29;35.38;;;21.10;;
14019;SDS011;7085;51.428;6.796;2023-02-11T14:51:01;38.42;;;22.33;;
14019;SDS011;7085;51.428;6.796;2023-02-11T14:53:29;32.83;;;20.88;;
14019;SDS011;7085;51.428;6.796;2023-02-11T14:55:57;33.22;;;21.02;;
14019;SDS011;7085;51.428;6.796;2023-02-11T14:58:25;44.17;;;24.30;;